Time;durP1;ratioP1;P1;durP2;ratioP2;P2;SDS_P1;SDS_P2;PMS_P1;PMS_P2;Temp;Humidity;BMP_temperature;BMP_pressure;BME280_temperature;BME280_humidity;BME280_pressure;Samples;Min_cycle;Max_cycle;Signal;HPM_P1;HPM_P2
2022/07/12 00:01:05;;;;;;;10.18;2.15;;;;;;;22.30;39.94;100793.75;5054474;28;20032;-81
2022/07/12 00:03:30;;;;;;;19.23;2.65;;;;;;;22.43;39.98;100820.44;5053943;28;20032;-81
2022/07/12 00:05:56;;;;;;;4.43;1.67;;;;;;;22.46;40.01;100826.38;5054243;28;20406;-81
2022/07/12 00:08:22;;;;;;;5.82;1.83;;;;;;;22.51;40.07;100821.13;5054856;28;20071;-81
2022/07/12 00:10:47;;;;;;;2.63;1.77;;;;;;;22.44;40.05;100803.81;5057255;28;20028;-81
2022/07/12 00:13:13;;;;;;;2.83;1.63;;;;;;;22.34;40.24;100814.25;5057994;28;20033;-80
2022/07/12 00:15:38;;;;;;;4.13;1.67;;;;;;;22.38;40.18;100825.66;5056936;28;20028;-80
2022/07/12 00:18:04;;;;;;;4.72;2.08;;;;;;;22.25;40.54;100812.69;5053500;28;20036;-81
2022/07/12 00:20:29;;;;;;;6.03;1.92;;;;;;;22.28;40.73;100826.00;5053492;28;20438;-81
2022/07/12 00:22:55;;;;;;;4.03;1.30;;;;;;;22.10;40.78;100801.78;5054230;28;20100;-81
2022/07/12 00:25:21;;;;;;;5.30;1.95;;;;;;;22.21;41.01;100827.81;5053931;28;20025;-81
2022/07/12 00:27:46;;;;;;;4.65;2.17;;;;;;;22.27;40.76;100826.16;5053590;28;20051;-80
2022/07/12 00:30:12;;;;;;;4.22;1.73;;;;;;;22.24;40.90;100830.16;5053693;28;20032;-81
2022/07/12 00:32:37;;;;;;;3.95;1.80;;;;;;;22.26;41.01;100828.09;5053588;28;20023;-81
2022/07/12 00:35:05;;;;;;;8.27;2.42;;;;;;;22.23;40.98;100833.97;5051877;28;20100;-82
2022/07/12 00:37:31;;;;;;;3.38;2.33;;;;;;;22.11;41.11;100827.28;5052771;28;20086;-81
2022/07/12 00:39:57;;;;;;;6.10;2.22;;;;;;;22.15;41.35;100817.63;5053184;28;20032;-80
2022/07/12 00:42:23;;;;;;;7.28;1.92;;;;;;;22.17;41.39;100823.75;5053310;28;20145;-81
2022/07/12 00:44:48;;;;;;;5.47;2.30;;;;;;;22.09;41.29;100812.94;5053462;28;20036;-81
2022/07/12 00:47:27;;;;;;;2.05;1.60;;;;;;;22.13;41.65;100816.97;5053490;28;20029;-82
2022/07/12 00:49:53;;;;;;;4.80;1.75;;;;;;;22.04;41.48;100808.06;5053532;28;20025;-81
2022/07/12 00:52:18;;;;;;;8.70;2.40;;;;;;;22.12;41.57;100823.50;5053152;28;20051;-80
2022/07/12 00:54:44;;;;;;;5.75;1.90;;;;;;;22.02;41.55;100817.47;5052894;28;20024;-81
2022/07/12 00:57:09;;;;;;;5.70;2.40;;;;;;;22.05;41.67;100828.03;5053498;28;20071;-80
2022/07/12 00:59:35;;;;;;;5.60;1.70;;;;;;;22.01;41.87;100815.81;5053764;28;20020;-81
2022/07/12 01:02:01;;;;;;;4.70;2.10;;;;;;;22.01;41.88;100818.53;5053343;28;20021;-81
2022/07/12 01:04:27;;;;;;;7.82;2.75;;;;;;;21.91;41.87;100801.56;5053106;28;20382;-81
2022/07/12 01:06:53;;;;;;;7.05;1.67;;;;;;;21.95;41.95;100819.31;5053187;28;20035;-81
2022/07/12 01:09:19;;;;;;;4.05;2.28;;;;;;;21.99;41.98;100815.97;5053034;28;20028;-81
2022/07/12 01:11:44;;;;;;;7.55;2.95;;;;;;;21.79;42.34;100814.03;5053317;28;20017;-81
2022/07/12 01:14:11;;;;;;;10.23;3.50;;;;;;;21.88;42.36;100834.78;5053512;28;20021;-81
2022/07/12 01:16:37;;;;;;;7.75;3.00;;;;;;;21.85;42.42;100829.69;5053913;28;20090;-81
2022/07/12 01:19:06;;;;;;;11.60;3.58;;;;;;;21.76;42.48;100820.75;5059512;28;20024;-80
2022/07/12 01:21:37;;;;;;;10.38;3.33;;;;;;;21.87;42.42;100825.72;5056917;28;20094;-81
2022/07/12 01:24:04;;;;;;;7.65;2.83;;;;;;;21.86;42.56;100831.41;5053198;28;20104;-81
2022/07/12 01:26:30;;;;;;;12.77;3.95;;;;;;;21.86;42.67;100839.63;5052675;28;20013;-81
2022/07/12 01:28:57;;;;;;;9.35;3.35;;;;;;;21.81;42.82;100837.44;5053047;28;20032;-81
2022/07/12 01:31:22;;;;;;;5.80;3.58;;;;;;;21.84;42.74;100831.56;5052599;28;20016;-81
2022/07/12 01:33:49;;;;;;;8.70;3.50;;;;;;;21.80;42.71;100826.69;5052924;28;20021;-81
2022/07/12 01:36:14;;;;;;;5.97;3.13;;;;;;;21.76;42.86;100830.84;5053021;28;20174;-80
2022/07/12 01:38:40;;;;;;;10.35;3.42;;;;;;;21.65;43.00;100819.34;5056344;28;20458;-80
2022/07/12 01:41:06;;;;;;;9.43;3.00;;;;;;;21.67;43.26;100833.72;5055732;28;20048;-80
2022/07/12 01:43:31;;;;;;;12.98;3.10;;;;;;;21.68;43.20;100824.44;5055663;28;20024;-81
2022/07/12 01:45:57;;;;;;;4.38;2.45;;;;;;;21.53;43.44;100815.41;5052657;28;20390;-81
2022/07/12 01:48:22;;;;;;;14.60;2.92;;;;;;;21.64;43.55;100833.25;5052606;28;20021;-81
2022/07/12 01:50:48;;;;;;;11.43;2.63;;;;;;;21.66;43.60;100826.53;5052880;28;20035;-81
2022/07/12 01:53:14;;;;;;;10.55;3.08;;;;;;;21.62;43.77;100838.03;5052280;28;20024;-80
2022/07/12 01:55:39;;;;;;;8.15;2.53;;;;;;;21.67;43.55;100839.19;5052339;28;20017;-80
2022/07/12 01:58:06;;;;;;;7.53;2.67;;;;;;;21.59;43.92;100844.75;5052389;28;20025;-81
2022/07/12 02:00:31;;;;;;;7.07;2.42;;;;;;;21.65;43.91;100830.28;5052496;28;20081;-81
2022/07/12 02:02:56;;;;;;;7.10;2.70;;;;;;;21.65;43.79;100830.28;5052611;28;20028;-81
2022/07/12 02:05:22;;;;;;;12.95;3.05;;;;;;;21.62;43.86;100827.09;5052238;28;20059;-81
2022/07/12 02:07:49;;;;;;;15.50;3.00;;;;;;;21.64;43.87;100831.34;5052443;28;20021;-81
2022/07/12 02:10:15;;;;;;;9.25;2.90;;;;;;;21.53;44.03;100820.88;5051794;28;20021;-81
2022/07/12 02:12:40;;;;;;;12.95;3.22;;;;;;;21.53;44.10;100822.75;5052242;28;20029;-81
2022/07/12 02:15:07;;;;;;;7.43;3.03;;;;;;;21.51;44.22;100833.91;5052753;28;20017;-81
2022/07/12 02:17:33;;;;;;;19.13;3.13;;;;;;;21.40;44.33;100812.53;5052442;28;20364;-81
2022/07/12 02:19:59;;;;;;;9.18;2.55;;;;;;;21.50;44.33;100831.34;5052359;28;20021;-81
2022/07/12 02:22:24;;;;;;;25.42;3.53;;;;;;;21.59;44.26;100828.31;5052985;28;20035;-81
2022/07/12 02:24:50;;;;;;;7.80;2.90;;;;;;;21.57;44.17;100832.31;5053320;28;20024;-81
2022/07/12 02:27:16;;;;;;;14.65;3.50;;;;;;;21.62;44.16;100838.03;5056752;28;20035;-81
2022/07/12 02:29:42;;;;;;;6.97;3.17;;;;;;;21.55;44.17;100824.28;5056213;28;20028;-81
2022/07/12 02:32:07;;;;;;;10.23;3.28;;;;;;;21.48;44.27;100814.28;5056147;28;20025;-81
2022/07/12 02:34:33;;;;;;;14.48;3.55;;;;;;;21.62;44.26;100841.63;5055735;28;20094;-81
2022/07/12 02:36:58;;;;;;;6.13;3.05;;;;;;;21.70;44.11;100840.69;5055918;28;20025;-80
2022/07/12 02:39:24;;;;;;;16.38;3.03;;;;;;;21.68;44.13;100845.47;5056161;28;20021;-81
2022/07/12 02:41:49;;;;;;;14.75;3.05;;;;;;;21.60;44.24;100831.91;5056250;28;20025;-81
2022/07/12 02:44:15;;;;;;;7.60;2.72;;;;;;;21.70;44.18;100843.44;5054683;28;20106;-80
2022/07/12 02:46:41;;;;;;;8.38;3.30;;;;;;;21.59;44.10;100831.06;5055739;28;20119;-80
2022/07/12 02:49:06;;;;;;;7.57;2.88;;;;;;;21.69;44.18;100850.78;5055841;28;20479;-81
2022/07/12 02:51:32;;;;;;;12.30;3.42;;;;;;;21.68;44.18;100846.34;5055888;28;20024;-81
2022/07/12 02:53:59;;;;;;;9.98;2.88;;;;;;;21.67;44.21;100847.41;5055971;28;20562;-80
2022/07/12 02:56:25;;;;;;;9.75;2.85;;;;;;;21.69;44.21;100848.03;5058630;28;20029;-81
2022/07/12 02:58:50;;;;;;;8.93;3.60;;;;;;;21.69;44.26;100848.03;5055582;28;20494;-81
2022/07/12 03:01:16;;;;;;;15.07;3.42;;;;;;;21.69;44.23;100852.66;5055658;28;20029;-80
2022/07/12 03:03:41;;;;;;;8.73;2.92;;;;;;;21.70;44.12;100852.50;5054991;28;20020;-81
2022/07/12 03:06:07;;;;;;;12.70;4.03;;;;;;;21.68;44.41;100851.81;5058420;28;20263;-81
2022/07/12 03:08:32;;;;;;;14.88;3.53;;;;;;;21.74;44.23;100860.31;5057046;28;20021;-80
2022/07/12 03:10:58;;;;;;;14.38;3.63;;;;;;;21.68;44.31;100851.81;5059735;28;20080;-80
2022/07/12 03:13:23;;;;;;;17.45;3.65;;;;;;;21.74;44.31;100865.81;5056561;28;20033;-81
2022/07/12 03:15:50;;;;;;;11.88;4.05;;;;;;;21.69;44.37;100848.03;5054895;28;20360;-81
2022/07/12 03:18:15;;;;;;;7.10;3.15;;;;;;;21.70;44.26;100855.22;5055171;28;20024;-81
2022/07/12 03:20:40;;;;;;;13.68;2.92;;;;;;;21.67;44.30;100860.22;5055270;28;20028;-81
2022/07/12 03:23:06;;;;;;;6.97;2.50;;;;;;;21.71;44.39;100859.66;5054863;28;20104;-81
2022/07/12 03:25:31;;;;;;;13.57;2.85;;;;;;;21.71;44.32;100862.38;5054741;28;20406;-81
2022/07/12 03:27:57;;;;;;;7.38;2.70;;;;;;;21.69;44.17;100848.03;5054512;28;20029;-81
2022/07/12 03:30:22;;;;;;;8.68;3.22;;;;;;;21.71;44.29;100864.31;5054839;28;20475;-81
2022/07/12 03:32:49;;;;;;;9.25;3.22;;;;;;;21.81;44.26;100866.72;5054738;28;20482;-81
2022/07/12 03:35:14;;;;;;;6.88;2.80;;;;;;;21.77;44.34;100868.16;5054566;28;20053;-81
2022/07/12 03:37:49;;;;;;;11.27;4.20;;;;;;;21.71;44.13;100854.16;5053539;28;20031;-81
2022/07/12 03:40:16;;;;;;;10.43;2.75;;;;;;;21.78;44.09;100873.44;5054280;28;20021;-81
2022/07/12 03:42:42;;;;;;;10.52;2.60;;;;;;;21.89;43.57;100880.34;5054272;28;20021;-81
2022/07/12 03:45:08;;;;;;;11.02;2.80;;;;;;;21.82;43.91;100880.22;5054465;28;20017;-81
2022/07/12 03:47:40;;;;;;;12.50;2.63;;;;;;;21.95;43.63;100876.84;5054064;28;20116;-81
2022/07/12 03:50:11;;;;;;;6.88;3.47;;;;;;;21.98;43.47;100877.31;5054369;28;20104;-82
2022/07/12 03:52:37;;;;;;;8.75;2.97;;;;;;;22.00;43.66;100871.63;5054673;28;20495;-82
2022/07/12 03:55:04;;;;;;;9.55;2.35;;;;;;;21.93;43.31;100854.25;5054110;28;20031;-81
2022/07/12 03:57:29;;;;;;;9.32;2.42;;;;;;;22.05;42.96;100863.66;5054008;28;20020;-81
2022/07/12 03:59:55;;;;;;;11.43;3.15;;;;;;;22.08;42.65;100868.75;5054311;28;20101;-82
2022/07/12 04:02:21;;;;;;;15.25;2.40;;;;;;;22.07;42.55;100869.81;5054193;28;20545;-81
2022/07/12 04:04:46;;;;;;;14.10;3.20;;;;;;;22.14;42.59;100876.19;5053784;28;20025;-82
2022/07/12 04:07:11;;;;;;;9.48;2.08;;;;;;;22.11;42.49;100876.59;5053892;28;20024;-82
2022/07/12 04:09:37;;;;;;;12.63;2.22;;;;;;;22.17;42.65;100878.53;5054754;28;20055;-81
2022/07/12 04:12:03;;;;;;;10.23;2.58;;;;;;;22.20;42.55;100867.19;5055370;28;20395;-80
2022/07/12 04:14:29;;;;;;;8.85;2.50;;;;;;;22.23;42.28;100870.41;5060934;28;20036;-81
2022/07/12 04:16:55;;;;;;;10.27;2.55;;;;;;;22.04;42.20;100867.47;5056595;28;20013;-81
2022/07/12 04:19:23;;;;;;;8.95;2.60;;;;;;;22.10;42.41;100869.44;5053888;28;20028;-82
2022/07/12 04:21:49;;;;;;;3.60;1.90;;;;;;;22.09;41.97;100881.41;5054511;28;20017;-82
2022/07/12 04:24:14;;;;;;;7.32;2.45;;;;;;;22.03;42.17;100869.34;5054783;28;20028;-80
2022/07/12 04:26:40;;;;;;;13.32;2.03;;;;;;;22.12;42.25;100873.66;5054723;28;20025;-82
2022/07/12 04:29:06;;;;;;;8.10;1.85;;;;;;;22.15;42.28;100878.75;5054464;28;20063;-81
2022/07/12 04:31:31;;;;;;;3.42;1.52;;;;;;;22.14;42.42;100874.31;5055802;28;20039;-80
2022/07/12 04:33:57;;;;;;;10.02;2.58;;;;;;;22.17;42.31;100884.03;5059394;28;20091;-80
2022/07/12 04:36:22;;;;;;;15.55;2.58;;;;;;;22.15;42.38;100880.66;5060144;28;20098;-81
2022/07/12 04:38:47;;;;;;;13.32;2.72;;;;;;;22.21;42.19;100886.19;5060590;28;20032;-81
2022/07/12 04:41:13;;;;;;;10.95;2.53;;;;;;;22.16;42.10;100885.94;5058456;28;20116;-82
2022/07/12 04:43:38;;;;;;;7.25;1.85;;;;;;;22.19;42.12;100890.19;5054491;28;20021;-80
2022/07/12 04:46:10;;;;;;;14.85;2.97;;;;;;;22.22;42.23;100889.78;5052392;28;20025;-81
2022/07/12 04:48:37;;;;;;;6.97;1.92;;;;;;;22.06;42.28;100876.31;5052597;28;20040;-81
2022/07/12 04:51:03;;;;;;;7.47;2.15;;;;;;;22.08;42.38;100886.03;5053577;28;20395;-80
2022/07/12 04:53:29;;;;;;;15.65;2.28;;;;;;;22.14;42.35;100881.69;5053469;28;20032;-81
2022/07/12 04:55:55;;;;;;;10.77;2.38;;;;;;;22.15;42.35;100875.16;5053688;28;20449;-82
2022/07/12 04:58:21;;;;;;;5.95;2.22;;;;;;;22.07;42.50;100875.28;5053165;28;20029;-80
2022/07/12 05:00:46;;;;;;;4.90;1.95;;;;;;;22.08;42.29;100885.19;5053220;28;20100;-81
2022/07/12 05:03:12;;;;;;;14.32;2.30;;;;;;;22.06;42.48;100884.53;5052698;28;20422;-82
2022/07/12 05:05:37;;;;;;;5.72;1.75;;;;;;;21.91;42.42;100875.50;5052705;28;20418;-81
2022/07/12 05:08:04;;;;;;;16.30;2.97;;;;;;;22.09;42.37;100881.41;5053078;28;20025;-81
2022/07/12 05:10:29;;;;;;;11.07;1.92;;;;;;;22.16;41.91;100883.19;5053115;28;20017;-82
2022/07/12 05:12:55;;;;;;;16.08;2.28;;;;;;;22.20;41.85;100884.50;5052623;28;20021;-81
2022/07/12 05:15:21;;;;;;;5.53;1.95;;;;;;;22.32;41.49;100884.00;5052719;28;20025;-81
2022/07/12 05:17:46;;;;;;;8.02;2.10;;;;;;;22.31;41.16;100879.56;5055207;28;20024;-81
2022/07/12 05:20:12;;;;;;;5.18;1.98;;;;;;;22.35;41.29;100881.72;5056276;28;20045;-81
2022/07/12 05:22:37;;;;;;;4.78;1.77;;;;;;;22.47;41.11;100891.13;5051650;28;20378;-81
2022/07/12 05:25:04;;;;;;;9.73;2.15;;;;;;;22.20;40.64;100850.75;5052630;28;20052;-80
2022/07/12 05:27:30;;;;;;;12.18;2.20;;;;;;;22.39;40.79;100882.16;5052342;28;20020;-82
2022/07/12 05:29:56;;;;;;;8.80;1.60;;;;;;;22.40;40.51;100881.97;5052464;28;20078;-81
2022/07/12 05:32:23;;;;;;;6.30;1.80;;;;;;;22.38;40.46;100892.31;5052314;28;20028;-81
2022/07/12 05:34:49;;;;;;;11.93;1.70;;;;;;;22.34;40.66;100880.03;5052162;28;20048;-81
2022/07/12 05:37:14;;;;;;;6.85;2.30;;;;;;;22.39;40.58;100896.72;5052270;28;20025;-81
2022/07/12 05:39:40;;;;;;;6.60;1.92;;;;;;;22.47;40.89;100890.28;5051143;28;20031;-81
2022/07/12 05:42:05;;;;;;;11.52;1.60;;;;;;;22.55;40.42;100892.88;5052417;28;20104;-81
2022/07/12 05:44:31;;;;;;;17.27;1.90;;;;;;;22.44;40.34;100896.16;5052912;28;20052;-81
2022/07/12 05:46:56;;;;;;;13.48;2.10;;;;;;;22.45;40.36;100897.81;5052554;28;20021;-81
2022/07/12 05:49:21;;;;;;;14.32;1.80;;;;;;;22.53;40.29;100895.81;5052370;28;20379;-80
2022/07/12 05:54:32;;;;;;;3.97;1.90;;;;;;;22.55;40.74;100890.97;5052372;28;20059;-79
2022/07/12 05:56:58;;;;;;;8.07;1.45;;;;;;;22.56;40.36;100897.31;5051996;28;20025;-81
2022/07/12 05:59:23;;;;;;;15.55;2.42;;;;;;;22.58;40.80;100898.81;5050636;28;20460;-81
2022/07/12 06:01:49;;;;;;;4.03;2.05;;;;;;;22.61;40.51;100892.09;5052777;28;20406;-82
2022/07/12 06:04:14;;;;;;;11.55;1.85;;;;;;;22.66;40.34;100887.72;5055811;28;20021;-82
2022/07/12 06:06:40;;;;;;;7.30;1.80;;;;;;;22.59;40.25;100872.25;5056306;28;20024;-82
2022/07/12 06:09:05;;;;;;;7.07;1.67;;;;;;;22.65;40.51;100883.31;5056354;28;20482;-81
2022/07/12 06:11:33;;;;;;;6.65;1.95;;;;;;;22.62;40.88;100894.66;5052387;28;20029;-82
2022/07/12 06:13:59;;;;;;;4.07;1.55;;;;;;;22.73;40.66;100891.41;5052142;28;20029;-82
2022/07/12 06:16:24;;;;;;;9.43;1.77;;;;;;;22.72;40.71;100889.69;5052452;28;20025;-82
2022/07/12 06:18:50;;;;;;;20.23;2.08;;;;;;;22.85;40.30;100893.59;5052090;28;20032;-82
2022/07/12 06:21:16;;;;;;;3.85;1.73;;;;;;;22.80;40.08;100872.25;5052002;28;20025;-82
2022/07/12 06:23:42;;;;;;;4.95;2.15;;;;;;;22.95;40.11;100880.41;5052043;28;20510;-82
2022/07/12 06:26:07;;;;;;;4.32;1.58;;;;;;;22.92;40.38;100884.38;5052393;28;20017;-81
2022/07/12 06:28:33;;;;;;;4.45;2.03;;;;;;;23.00;39.72;100891.59;5052177;28;20020;-82
2022/07/12 06:30:58;;;;;;;4.13;1.90;;;;;;;23.06;39.84;100891.66;5052170;28;20063;-82
2022/07/12 06:33:24;;;;;;;5.53;2.05;;;;;;;23.12;38.73;100873.53;5052505;28;20025;-82
2022/07/12 06:35:49;;;;;;;5.95;2.15;;;;;;;23.24;39.17;100899.38;5051915;28;20140;-82
2022/07/12 06:38:16;;;;;;;9.27;2.15;;;;;;;23.30;38.52;100898.63;5051759;28;20063;-82
2022/07/12 06:40:41;;;;;;;6.82;1.23;;;;;;;23.32;38.84;100888.28;5051813;28;20524;-81
2022/07/12 06:43:10;;;;;;;8.00;1.50;;;;;;;23.45;39.22;100895.78;5051946;28;20024;-81
2022/07/12 06:45:36;;;;;;;6.78;1.85;;;;;;;23.55;39.06;100901.72;5051559;28;20025;-81
2022/07/12 06:48:02;;;;;;;6.55;1.77;;;;;;;23.63;39.40;100894.19;5051647;28;20032;-81
2022/07/12 06:50:27;;;;;;;7.18;1.65;;;;;;;23.72;38.41;100887.47;5051981;28;20025;-82
2022/07/12 06:52:53;;;;;;;6.22;1.48;;;;;;;23.77;38.48;100884.97;5051741;28;20059;-82
2022/07/12 06:55:18;;;;;;;6.05;1.52;;;;;;;23.87;38.42;100891.97;5051682;28;20059;-82
2022/07/12 06:57:44;;;;;;;2.47;1.70;;;;;;;23.98;38.44;100889.47;5051583;28;20032;-82
2022/07/12 07:00:10;;;;;;;9.77;1.80;;;;;;;24.03;38.22;100877.88;5052319;28;20032;-81
2022/07/12 07:02:37;;;;;;;4.80;1.67;;;;;;;24.11;38.27;100891.47;5053053;28;20497;-81
2022/07/12 07:05:03;;;;;;;7.70;1.92;;;;;;;24.11;38.10;100864.84;5057940;28;20031;-81
2022/07/12 07:07:28;;;;;;;4.05;1.42;;;;;;;24.23;37.92;100879.66;5059010;28;20099;-82
2022/07/12 07:09:54;;;;;;;12.07;1.75;;;;;;;24.31;37.79;100884.16;5050826;28;20112;-82
2022/07/12 07:12:19;;;;;;;5.78;2.10;;;;;;;24.03;37.51;100837.53;5053048;28;20451;-81
2022/07/12 07:14:45;;;;;;;3.78;1.67;;;;;;;24.34;37.35;100875.47;5055215;28;20024;-82
2022/07/12 07:17:10;;;;;;;5.47;2.17;;;;;;;24.39;37.20;100872.94;5055619;28;20085;-82
2022/07/12 07:19:38;;;;;;;8.35;1.75;;;;;;;24.46;36.87;100879.31;5055390;28;20063;-81
2022/07/12 07:22:04;;;;;;;3.95;1.75;;;;;;;24.52;37.21;100875.72;5055171;28;20134;-82
2022/07/12 07:24:29;;;;;;;5.15;1.63;;;;;;;24.49;36.87;100840.38;5055342;28;20787;-82
2022/07/12 07:26:55;;;;;;;5.20;1.63;;;;;;;24.81;36.80;100867.09;5054976;28;20376;-82
2022/07/12 07:32:05;;;;;;;12.45;1.90;;;;;;;24.84;36.00;100874.91;5059129;28;20063;-81
2022/07/12 07:34:30;;;;;;;13.45;1.75;;;;;;;24.84;35.92;100849.31;5056771;28;20041;-81
2022/07/12 07:36:56;;;;;;;3.47;1.52;;;;;;;24.99;36.01;100860.09;5057951;28;20040;-81
2022/07/12 07:39:21;;;;;;;7.60;1.80;;;;;;;25.09;36.09;100861.34;5053710;28;20020;-81
2022/07/12 07:41:47;;;;;;;5.40;1.80;;;;;;;25.16;36.21;100873.22;5055535;28;20464;-82
2022/07/12 07:44:12;;;;;;;9.13;1.92;;;;;;;25.31;35.74;100867.47;5056506;28;20078;-82
2022/07/12 07:46:37;;;;;;;7.32;1.88;;;;;;;25.35;35.53;100866.81;5054944;28;20017;-82
2022/07/12 07:49:03;;;;;;;4.70;1.73;;;;;;;25.41;35.56;100862.38;5054753;28;20021;-81
2022/07/12 07:51:29;;;;;;;11.68;2.15;;;;;;;25.48;35.47;100863.16;5054673;28;20494;-81
2022/07/12 07:53:55;;;;;;;7.07;1.60;;;;;;;25.52;35.10;100867.22;5054136;28;20036;-82
2022/07/12 07:56:20;;;;;;;11.73;1.95;;;;;;;25.56;35.01;100871.25;5055058;28;20025;-82
2022/07/12 07:58:46;;;;;;;14.93;2.45;;;;;;;25.64;35.28;100882.03;5054648;28;20025;-81
2022/07/12 08:01:11;;;;;;;13.35;1.85;;;;;;;25.65;34.66;100883.72;5054341;28;20199;-82
2022/07/12 08:03:37;;;;;;;4.43;1.90;;;;;;;25.68;34.83;100877.78;5054076;28;20483;-82
2022/07/12 08:06:02;;;;;;;8.05;2.15;;;;;;;25.79;34.49;100866.06;5054327;28;20024;-81
2022/07/12 08:08:29;;;;;;;5.72;2.15;;;;;;;25.77;34.21;100857.19;5054334;28;20045;-81
2022/07/12 08:10:56;;;;;;;5.78;2.03;;;;;;;26.00;34.18;100867.66;5054473;28;20059;-81
2022/07/12 08:13:21;;;;;;;13.40;1.80;;;;;;;26.14;33.94;100857.44;5054726;28;20056;-81
2022/07/12 08:15:47;;;;;;;12.95;1.80;;;;;;;26.28;33.65;100859.06;5055394;28;20039;-81
2022/07/12 08:18:13;;;;;;;7.88;1.70;;;;;;;26.38;33.34;100870.47;5054750;28;20078;-82
2022/07/12 08:20:38;;;;;;;6.68;1.35;;;;;;;26.35;33.62;100846.94;5053591;28;20506;-81
2022/07/12 08:23:04;;;;;;;4.95;1.50;;;;;;;26.46;32.75;100842.59;5053357;28;20394;-80
2022/07/12 08:25:29;;;;;;;5.07;1.33;;;;;;;26.66;32.53;100868.16;5052624;28;20056;-82
2022/07/12 08:27:55;;;;;;;5.00;1.50;;;;;;;26.59;32.33;100856.31;5052482;28;20025;-82
2022/07/12 08:30:20;;;;;;;6.68;1.58;;;;;;;26.49;32.75;100850.44;5053119;28;20082;-83
2022/07/12 08:32:46;;;;;;;6.22;1.52;;;;;;;26.45;31.82;100852.78;5053202;28;20383;-82
2022/07/12 08:35:12;;;;;;;8.15;2.15;;;;;;;26.54;32.50;100847.03;5052462;28;20060;-82
2022/07/12 08:37:38;;;;;;;8.80;1.55;;;;;;;26.56;32.85;100848.47;5053180;28;20403;-82
2022/07/12 08:40:05;;;;;;;11.57;1.83;;;;;;;26.60;33.24;100851.66;5053365;28;20028;-81
2022/07/12 08:42:32;;;;;;;9.70;1.95;;;;;;;26.64;32.95;100859.22;5053054;28;20448;-81
2022/07/12 08:44:58;;;;;;;6.80;1.60;;;;;;;26.73;32.59;100851.50;5053346;28;20107;-82
2022/07/12 08:47:24;;;;;;;6.55;1.77;;;;;;;26.80;32.88;100841.31;5053507;28;20110;-83
2022/07/12 08:50:11;;;;;;;8.57;1.00;;;;;;;26.93;31.74;100861.38;5053347;28;20020;-82
2022/07/12 08:52:42;;;;;;;5.85;1.60;;;;;;;26.92;31.81;100834.81;5053683;28;20024;-82
2022/07/12 08:55:33;;;;;;;8.43;1.23;;;;;;;27.11;31.49;100851.44;5052901;28;20013;-82
2022/07/12 08:58:02;;;;;;;5.90;1.33;;;;;;;27.19;31.75;100860.25;5054982;28;20024;-82
2022/07/12 09:00:28;;;;;;;19.65;2.92;;;;;;;27.26;31.17;100852.75;5060520;28;20021;-81
2022/07/12 09:02:59;;;;;;;7.57;1.52;;;;;;;27.19;31.46;100849.22;5058827;28;20406;-81
2022/07/12 09:05:31;;;;;;;11.70;2.63;;;;;;;27.19;30.58;100845.59;5057834;28;20033;-80
2022/07/12 09:08:10;;;;;;;13.35;1.73;;;;;;;27.02;31.33;100843.44;5057959;28;20017;-81
2022/07/12 09:11:04;;;;;;;7.30;1.70;;;;;;;26.94;31.37;100832.66;5053592;28;20020;-81
2022/07/12 09:13:53;;;;;;;3.80;1.40;;;;;;;26.80;31.44;100839.41;5052351;28;20457;-82
2022/07/12 09:16:24;;;;;;;11.25;2.15;;;;;;;26.83;31.69;100840.84;5053161;28;20016;-81
2022/07/12 09:18:50;;;;;;;11.07;1.67;;;;;;;26.86;31.78;100829.34;5053227;28;20024;-82
2022/07/12 09:21:26;;;;;;;13.20;1.83;;;;;;;27.07;32.15;100837.22;5054384;28;20021;-82
2022/07/12 09:23:56;;;;;;;7.85;1.73;;;;;;;27.19;31.55;100835.41;5053383;28;20017;-82
2022/07/12 09:26:23;;;;;;;6.95;2.17;;;;;;;27.26;31.55;100824.28;5052985;28;20048;-82
2022/07/12 09:28:51;;;;;;;3.53;1.27;;;;;;;27.44;31.35;100824.31;5052685;28;20463;-83
2022/07/12 09:31:17;;;;;;;5.47;1.23;;;;;;;27.52;30.79;100843.38;5052569;28;20020;-82
2022/07/12 09:36:54;;;;;;;6.38;1.50;;;;;;;27.53;30.78;100836.75;5052228;28;20125;-82
2022/07/12 09:39:22;;;;;;;4.28;1.50;;;;;;;27.56;30.49;100837.16;5052200;28;20036;-82
2022/07/12 09:41:48;;;;;;;3.30;1.45;;;;;;;27.65;30.92;100834.91;5053131;28;20057;-82
2022/07/12 09:44:14;;;;;;;3.38;1.40;;;;;;;27.73;31.03;100829.09;5052193;28;20032;-82
2022/07/12 09:46:41;;;;;;;5.25;1.60;;;;;;;27.64;30.51;100827.72;5052607;28;20023;-81
2022/07/12 09:49:10;;;;;;;4.43;1.60;;;;;;;27.55;30.23;100829.09;5053116;28;20024;-81
2022/07/12 09:51:38;;;;;;;8.27;1.70;;;;;;;27.39;30.82;100835.19;5051819;28;20028;-81
2022/07/12 09:54:07;;;;;;;8.98;1.90;;;;;;;27.49;30.79;100830.03;5061688;28;20029;-80
2022/07/12 09:56:35;;;;;;;8.68;1.65;;;;;;;27.50;30.10;100820.63;5056689;28;20122;-83
2022/07/12 09:59:01;;;;;;;4.75;1.52;;;;;;;27.52;29.71;100818.50;5053371;28;20352;-82
2022/07/12 10:01:30;;;;;;;5.43;1.67;;;;;;;27.62;29.73;100824.31;5052404;28;20114;-82
2022/07/12 10:03:59;;;;;;;5.15;2.97;;;;;;;27.68;29.70;100812.34;5052049;28;20414;-82
2022/07/12 10:06:26;;;;;;;5.00;1.90;;;;;;;27.86;30.27;100814.22;5052001;28;20025;-82
2022/07/12 10:08:54;;;;;;;15.00;2.10;;;;;;;27.85;29.85;100820.84;5052587;28;20024;-82
2022/07/12 10:11:20;;;;;;;4.90;1.42;;;;;;;27.88;29.48;100793.59;5051882;28;20021;-83
2022/07/12 10:13:47;;;;;;;6.20;1.80;;;;;;;27.98;29.32;100809.63;5052053;28;20508;-82
2022/07/12 10:16:15;;;;;;;4.32;1.50;;;;;;;28.09;29.49;100811.59;5052590;28;20047;-82
2022/07/12 10:18:40;;;;;;;9.60;1.30;;;;;;;28.21;29.50;100809.72;5051964;28;20028;-82
2022/07/12 10:21:21;;;;;;;7.20;1.30;;;;;;;28.15;29.91;100793.22;5052415;28;20098;-82
2022/07/12 10:23:47;;;;;;;2.35;1.23;;;;;;;28.24;30.02;100797.34;5052614;28;20024;-82
2022/07/12 10:26:16;;;;;;;6.57;1.80;;;;;;;28.25;30.22;100810.94;5052856;28;20025;-81
2022/07/12 10:29:01;;;;;;;5.80;1.67;;;;;;;28.13;30.60;100790.72;5054573;28;20068;-82
2022/07/12 10:31:34;;;;;;;9.88;2.25;;;;;;;28.33;29.66;100801.44;5052968;28;20031;-82
2022/07/12 10:34:13;;;;;;;3.30;1.30;;;;;;;28.47;29.67;100797.41;5054055;28;20033;-81
2022/07/12 10:36:54;;;;;;;8.07;1.60;;;;;;;28.46;29.58;100804.88;5052029;28;20151;-83
2022/07/12 10:39:21;;;;;;;3.97;1.40;;;;;;;28.45;29.67;100802.31;5052215;28;20430;-82
2022/07/12 10:42:05;;;;;;;2.83;1.40;;;;;;;28.66;29.24;100787.09;5052394;28;20483;-83
2022/07/12 10:44:35;;;;;;;5.38;1.85;;;;;;;28.58;29.64;100791.88;5051983;28;20029;-82
2022/07/12 10:47:02;;;;;;;8.55;1.63;;;;;;;28.63;29.92;100793.94;5054202;28;20113;-83
2022/07/12 10:49:30;;;;;;;12.23;1.92;;;;;;;28.75;30.21;100780.13;5056354;28;20040;-83
2022/07/12 10:52:10;;;;;;;13.38;1.77;;;;;;;29.03;30.08;100783.88;5056036;28;20112;-82
2022/07/12 10:54:40;;;;;;;3.70;2.03;;;;;;;29.05;28.93;100772.56;5054911;28;20029;-81
2022/07/12 10:57:06;;;;;;;4.25;1.55;;;;;;;29.27;29.60;100781.09;5056596;28;20028;-82
2022/07/12 10:59:35;;;;;;;4.53;1.33;;;;;;;29.39;29.41;100771.66;5058291;28;20384;-82
2022/07/12 11:02:00;;;;;;;5.95;1.50;;;;;;;29.54;29.26;100763.66;5056228;28;20033;-82
2022/07/12 11:04:27;;;;;;;22.42;2.60;;;;;;;29.65;29.58;100765.56;5055580;28;20495;-83
2022/07/12 11:06:56;;;;;;;4.20;1.70;;;;;;;29.78;28.71;100767.22;5056140;28;20024;-83
2022/07/12 11:09:23;;;;;;;4.78;1.50;;;;;;;29.79;29.49;100766.13;5055590;28;20029;-83
2022/07/12 11:11:50;;;;;;;4.38;1.67;;;;;;;29.98;28.68;100767.63;5057194;28;20481;-83
2022/07/12 11:14:24;;;;;;;12.02;1.77;;;;;;;30.11;28.59;100745.13;5060950;28;20029;-83
2022/07/12 11:16:51;;;;;;;4.50;1.58;;;;;;;30.32;28.02;100751.88;5057788;28;20486;-82
2022/07/12 11:19:24;;;;;;;9.27;2.20;;;;;;;30.29;28.60;100743.22;5055497;28;20040;-82
2022/07/12 11:21:55;;;;;;;10.45;2.20;;;;;;;30.25;28.21;100751.19;5055786;28;20471;-83
2022/07/12 11:24:30;;;;;;;6.57;2.40;;;;;;;30.22;28.45;100748.91;5055228;28;20475;-83
2022/07/12 11:26:56;;;;;;;5.43;1.48;;;;;;;30.04;28.85;100752.78;5054714;28;20025;-83
2022/07/12 11:29:22;;;;;;;7.90;2.20;;;;;;;29.86;28.90;100749.34;5054813;28;20029;-82